Time;durP1;ratioP1;P1;durP2;ratioP2;P2;SDS_P1;SDS_P2;PMS_P1;PMS_P2;Temp;Humidity;BMP_temperature;BMP_pressure;BME280_temperature;BME280_humidity;BME280_pressure;Samples;Min_cycle;Max_cycle;Signal;HPM_P1;HPM_P2
2023/09/21 00:01:41;;;;;;;1.43;1.33;;;25.40;83.40;;;;;;6157592;23;20400;-87
2023/09/21 00:04:08;;;;;;;1.40;1.30;;;25.40;83.40;;;;;;6157466;23;20485;-87
2023/09/21 00:06:36;;;;;;;1.57;1.20;;;25.40;83.40;;;;;;6157214;23;20495;-87
2023/09/21 00:09:05;;;;;;;1.40;1.20;;;25.40;83.30;;;;;;6157648;23;20419;-87
2023/09/21 00:11:32;;;;;;;1.37;1.27;;;25.40;83.30;;;;;;6157548;23;20408;-87
2023/09/21 00:13:58;;;;;;;1.20;1.07;;;25.40;83.30;;;;;;6157152;23;20490;-87
2023/09/21 00:16:27;;;;;;;1.30;1.00;;;25.40;83.10;;;;;;6157514;23;20408;-87
2023/09/21 00:18:55;;;;;;;1.20;0.90;;;25.40;83.10;;;;;;6157444;23;20533;-87
2023/09/21 00:21:22;;;;;;;1.30;1.10;;;25.40;83.20;;;;;;6157416;23;20412;-87
2023/09/21 00:23:50;;;;;;;1.10;1.00;;;25.40;83.30;;;;;;6157343;23;20400;-87
2023/09/21 00:26:18;;;;;;;1.20;1.03;;;25.40;83.10;;;;;;6157449;23;20403;-87
2023/09/21 00:28:46;;;;;;;1.20;1.03;;;25.40;83.10;;;;;;6156802;23;20510;-87
2023/09/21 00:31:13;;;;;;;1.20;1.03;;;25.40;83.10;;;;;;6157060;23;20883;-87
2023/09/21 00:33:41;;;;;;;1.20;1.00;;;25.40;83.10;;;;;;6157174;23;20759;-87
2023/09/21 00:36:12;;;;;;;1.17;1.00;;;25.40;83.10;;;;;;6156993;23;20483;-87
2023/09/21 00:38:39;;;;;;;1.23;1.10;;;25.40;83.00;;;;;;6157339;23;20436;-87
2023/09/21 00:41:07;;;;;;;1.33;1.00;;;25.30;82.90;;;;;;6157378;23;20487;-87
2023/09/21 00:43:35;;;;;;;2.07;1.20;;;25.30;83.00;;;;;;6157219;23;20404;-87
2023/09/21 00:46:04;;;;;;;1.40;1.10;;;25.40;83.00;;;;;;6157270;23;20486;-87
2023/09/21 00:48:36;;;;;;;1.10;0.97;;;25.40;82.90;;;;;;6157223;23;20407;-87
2023/09/21 00:51:07;;;;;;;1.30;1.10;;;25.40;82.90;;;;;;6156296;23;20944;-87
2023/09/21 00:53:34;;;;;;;1.10;0.90;;;25.30;82.90;;;;;;6156878;23;20427;-87
2023/09/21 00:56:08;;;;;;;1.83;1.00;;;25.30;82.90;;;;;;6157124;23;20439;-87
2023/09/21 00:58:38;;;;;;;1.43;1.30;;;25.30;82.90;;;;;;6157204;23;20443;-87
2023/09/21 01:01:05;;;;;;;1.20;1.00;;;25.40;83.70;;;;;;6157368;23;20408;-87
2023/09/21 01:03:37;;;;;;;1.50;1.40;;;25.30;82.80;;;;;;6156536;23;20431;-87
2023/09/21 01:06:11;;;;;;;1.10;0.83;;;25.30;82.80;;;;;;6157365;23;20396;-87
2023/09/21 01:08:38;;;;;;;1.13;1.00;;;25.30;82.70;;;;;;6157187;23;20685;-87
2023/09/21 01:11:13;;;;;;;1.20;1.10;;;25.30;82.70;;;;;;6157168;23;20407;-87
2023/09/21 01:13:42;;;;;;;1.27;1.00;;;25.30;82.80;;;;;;6156971;23;20471;-87
2023/09/21 01:16:11;;;;;;;1.47;1.30;;;25.30;82.90;;;;;;6157140;23;20404;-87
2023/09/21 01:18:40;;;;;;;1.00;0.80;;;25.30;82.80;;;;;;6156816;23;20752;-87
2023/09/21 01:21:09;;;;;;;1.20;1.00;;;25.30;82.70;;;;;;6157323;23;20407;-87
2023/09/21 01:23:39;;;;;;;1.10;0.80;;;25.30;82.80;;;;;;6156680;23;20791;-87
2023/09/21 01:26:06;;;;;;;1.27;1.17;;;25.30;82.80;;;;;;6156671;23;20388;-87
2023/09/21 01:28:33;;;;;;;1.30;1.00;;;25.30;82.80;;;;;;6156399;23;20445;-87
2023/09/21 01:31:00;;;;;;;1.23;1.13;;;25.30;82.80;;;;;;6156441;23;20906;-87
2023/09/21 01:33:27;;;;;;;1.30;1.10;;;25.30;82.60;;;;;;6156726;23;20428;-87
2023/09/21 01:35:54;;;;;;;1.27;1.13;;;25.30;82.50;;;;;;6156401;23;20954;-87
2023/09/21 01:38:25;;;;;;;1.20;1.10;;;25.30;82.50;;;;;;6156881;23;20431;-87
2023/09/21 01:40:53;;;;;;;1.90;1.60;;;25.30;82.60;;;;;;6156426;23;20479;-87
2023/09/21 01:43:21;;;;;;;1.00;0.90;;;25.30;82.40;;;;;;6156643;23;20407;-87
2023/09/21 01:45:49;;;;;;;1.30;1.20;;;25.30;82.40;;;;;;6156338;23;20435;-87
2023/09/21 01:48:18;;;;;;;1.50;1.20;;;25.30;82.50;;;;;;6156720;23;20410;-87
2023/09/21 01:50:48;;;;;;;1.40;1.27;;;25.30;82.30;;;;;;6156655;23;20727;-87
2023/09/21 01:53:16;;;;;;;1.20;1.10;;;25.30;82.30;;;;;;6156510;23;20395;-87
2023/09/21 01:55:44;;;;;;;1.63;1.50;;;25.30;82.30;;;;;;6156639;23;20407;-87
2023/09/21 01:58:13;;;;;;;1.00;0.80;;;25.30;82.30;;;;;;6155967;23;20968;-87
2023/09/21 02:00:41;;;;;;;1.10;0.90;;;25.30;82.40;;;;;;6156636;23;20403;-87
2023/09/21 02:03:12;;;;;;;1.03;0.90;;;25.30;82.80;;;;;;6156167;23;20515;-87
2023/09/21 02:05:39;;;;;;;1.20;1.07;;;25.30;82.50;;;;;;6156692;23;20705;-87
2023/09/21 02:08:07;;;;;;;1.20;1.00;;;25.30;82.60;;;;;;6156184;23;20400;-87
2023/09/21 02:10:34;;;;;;;1.30;1.10;;;25.30;82.30;;;;;;6156498;23;20474;-87
2023/09/21 02:13:02;;;;;;;1.07;0.83;;;25.30;82.30;;;;;;6156024;23;20483;-87
2023/09/21 02:15:31;;;;;;;1.67;1.10;;;25.30;82.20;;;;;;6156001;23;20927;-87
2023/09/21 02:17:58;;;;;;;1.20;1.00;;;25.30;82.40;;;;;;6156054;23;20919;-87
2023/09/21 02:20:26;;;;;;;1.30;1.20;;;25.30;82.30;;;;;;6155830;23;20447;-87
2023/09/21 02:22:57;;;;;;;1.83;1.30;;;25.30;82.30;;;;;;6156356;23;20476;-87
2023/09/21 02:25:25;;;;;;;1.27;1.00;;;25.30;82.20;;;;;;6156031;23;20912;-87
2023/09/21 02:27:52;;;;;;;1.77;1.23;;;25.30;82.00;;;;;;6156106;23;20478;-87
2023/09/21 02:30:21;;;;;;;1.60;1.37;;;25.30;81.90;;;;;;6156069;23;20487;-87
2023/09/21 02:32:51;;;;;;;1.30;1.20;;;25.30;81.90;;;;;;6156164;23;20476;-87
2023/09/21 02:35:23;;;;;;;1.00;0.83;;;25.30;82.00;;;;;;6156376;23;20787;-87
2023/09/21 02:37:51;;;;;;;1.30;1.20;;;25.30;82.10;;;;;;6156333;23;20707;-87
2023/09/21 02:40:20;;;;;;;1.40;1.27;;;25.30;81.90;;;;;;6156075;23;20498;-87
2023/09/21 02:42:48;;;;;;;1.20;0.90;;;25.30;82.00;;;;;;6155731;23;20404;-87
2023/09/21 02:45:17;;;;;;;1.30;1.00;;;25.30;82.00;;;;;;6155978;23;20450;-87
2023/09/21 02:47:44;;;;;;;1.37;1.20;;;25.30;81.90;;;;;;6155846;23;20412;-87
2023/09/21 02:50:20;;;;;;;1.30;1.10;;;25.30;81.80;;;;;;6155834;23;20414;-87
2023/09/21 02:52:48;;;;;;;1.37;1.27;;;25.30;81.80;;;;;;6156222;23;20791;-87
2023/09/21 02:55:18;;;;;;;1.20;1.03;;;25.20;81.80;;;;;;6156210;23;20403;-87
2023/09/21 02:57:45;;;;;;;1.20;1.00;;;25.30;81.70;;;;;;6156210;23;20450;-87
2023/09/21 03:00:19;;;;;;;1.20;1.03;;;25.30;81.60;;;;;;6155833;23;20452;-87
2023/09/21 03:02:46;;;;;;;1.37;1.27;;;25.20;81.40;;;;;;6156096;23;20431;-87
2023/09/21 03:05:16;;;;;;;1.20;1.10;;;25.30;81.50;;;;;;6155777;23;20406;-87
2023/09/21 03:07:43;;;;;;;1.10;0.97;;;25.20;81.50;;;;;;6156140;23;20403;-87
2023/09/21 03:10:11;;;;;;;1.10;0.90;;;25.30;81.80;;;;;;6156095;23;20888;-87
2023/09/21 03:12:38;;;;;;;1.30;1.00;;;25.20;81.60;;;;;;6156146;23;20400;-87
2023/09/21 03:15:13;;;;;;;1.20;1.10;;;25.20;81.60;;;;;;6157683;23;20407;-87
2023/09/21 03:17:40;;;;;;;1.20;1.10;;;25.20;81.50;;;;;;6157794;23;20379;-87
2023/09/21 03:20:25;;;;;;;1.10;0.93;;;25.20;81.60;;;;;;6158058;23;20451;-87
2023/09/21 03:22:54;;;;;;;1.20;1.10;;;25.20;81.50;;;;;;6158047;23;20395;-87
2023/09/21 03:25:25;;;;;;;1.93;1.07;;;25.20;81.50;;;;;;6157927;23;20391;-87
2023/09/21 03:27:52;;;;;;;1.37;1.23;;;25.20;81.60;;;;;;6157522;23;20466;-87
2023/09/21 03:30:20;;;;;;;1.27;1.00;;;25.20;81.50;;;;;;6158142;23;20399;-87
2023/09/21 03:32:47;;;;;;;1.50;1.30;;;25.20;81.50;;;;;;6157827;23;20420;-87
2023/09/21 03:35:14;;;;;;;1.20;1.10;;;25.20;81.60;;;;;;6157993;23;20783;-87
2023/09/21 03:37:43;;;;;;;1.50;1.10;;;25.20;81.40;;;;;;6157869;23;20396;-87
2023/09/21 03:40:13;;;;;;;1.20;1.10;;;25.20;81.30;;;;;;6157943;23;20447;-87
2023/09/21 03:42:41;;;;;;;1.10;0.90;;;25.20;81.40;;;;;;6157926;23;20490;-87
2023/09/21 03:45:11;;;;;;;1.20;0.90;;;25.20;81.50;;;;;;6157930;23;20422;-87
2023/09/21 03:47:38;;;;;;;1.20;1.10;;;25.20;81.40;;;;;;6158259;23;20403;-87
2023/09/21 03:50:06;;;;;;;1.30;1.20;;;25.20;81.60;;;;;;6157807;23;20430;-87
2023/09/21 03:52:33;;;;;;;1.10;1.00;;;25.20;81.40;;;;;;6157388;23;20986;-87
2023/09/21 03:55:02;;;;;;;1.40;1.30;;;25.20;81.50;;;;;;6157694;23;20407;-87
2023/09/21 03:57:30;;;;;;;1.20;0.90;;;25.20;81.30;;;;;;6157711;23;20399;-87
2023/09/21 03:59:58;;;;;;;1.30;1.00;;;25.20;81.50;;;;;;6157477;23;20465;-87
2023/09/21 04:02:25;;;;;;;1.23;1.10;;;25.20;81.40;;;;;;6157649;23;20420;-87
2023/09/21 04:04:52;;;;;;;1.30;1.10;;;25.20;81.40;;;;;;6157846;23;20806;-87
2023/09/21 04:07:19;;;;;;;1.20;1.00;;;25.20;81.60;;;;;;6157677;23;20487;-87
2023/09/21 04:09:47;;;;;;;1.10;0.90;;;25.20;81.60;;;;;;6157657;23;20427;-87
2023/09/21 04:12:14;;;;;;;1.30;0.93;;;25.20;81.50;;;;;;6157132;23;20400;-87
2023/09/21 04:14:46;;;;;;;1.50;1.20;;;25.20;81.50;;;;;;6157600;23;20454;-87
2023/09/21 04:17:13;;;;;;;1.40;1.10;;;25.20;81.50;;;;;;6157684;23;20412;-87
2023/09/21 04:19:40;;;;;;;1.20;1.10;;;25.20;81.40;;;;;;6157026;23;20534;-87
2023/09/21 04:22:07;;;;;;;1.17;1.00;;;25.20;81.40;;;;;;6157581;23;20410;-87
2023/09/21 04:24:34;;;;;;;1.23;0.97;;;25.20;81.50;;;;;;6157072;23;20399;-87
2023/09/21 04:27:03;;;;;;;1.13;1.03;;;25.20;81.40;;;;;;6157369;23;20405;-87
2023/09/21 04:29:30;;;;;;;1.10;0.93;;;25.20;81.50;;;;;;6157537;23;20439;-87
2023/09/21 04:31:58;;;;;;;1.33;1.23;;;25.20;81.40;;;;;;6157530;23;20487;-87
2023/09/21 04:34:25;;;;;;;1.33;1.23;;;25.20;81.40;;;;;;6157164;23;20896;-87
2023/09/21 04:36:52;;;;;;;2.23;1.10;;;25.20;81.50;;;;;;6157465;23;20400;-87
2023/09/21 04:39:19;;;;;;;1.10;0.90;;;25.20;81.50;;;;;;6157458;23;20435;-87
2023/09/21 04:41:46;;;;;;;1.73;1.20;;;25.20;81.40;;;;;;6157208;23;20406;-87
2023/09/21 04:44:12;;;;;;;1.20;1.00;;;25.20;81.50;;;;;;6157258;23;20404;-87
2023/09/21 04:46:41;;;;;;;1.47;1.10;;;25.20;81.40;;;;;;6156965;23;20408;-87
2023/09/21 04:49:10;;;;;;;1.00;0.80;;;25.20;81.50;;;;;;6156878;23;20883;-87
2023/09/21 04:51:38;;;;;;;1.20;1.10;;;25.20;81.70;;;;;;6157226;23;20438;-87
2023/09/21 04:54:06;;;;;;;1.07;0.90;;;25.20;81.50;;;;;;6157097;23;20400;-87
2023/09/21 04:56:33;;;;;;;1.50;1.17;;;25.20;81.40;;;;;;6157121;23;20404;-87
2023/09/21 04:59:00;;;;;;;1.43;1.33;;;25.20;81.40;;;;;;6156897;23;20403;-87
2023/09/21 05:01:27;;;;;;;1.20;0.90;;;25.20;81.50;;;;;;6157088;23;20426;-87
2023/09/21 05:03:55;;;;;;;1.40;1.10;;;25.20;81.50;;;;;;6157056;23;20482;-87
2023/09/21 05:06:23;;;;;;;1.10;0.90;;;25.20;81.60;;;;;;6157088;23;20407;-87
2023/09/21 05:08:51;;;;;;;1.30;1.03;;;25.20;81.50;;;;;;6157107;23;20410;-87
2023/09/21 05:11:18;;;;;;;1.27;1.10;;;25.20;81.70;;;;;;6157057;23;20491;-87
2023/09/21 05:13:45;;;;;;;1.00;0.80;;;25.20;81.60;;;;;;6157075;23;20442;-87
2023/09/21 05:16:11;;;;;;;1.30;1.20;;;25.20;81.60;;;;;;6157088;23;20404;-87
2023/09/21 05:18:38;;;;;;;1.30;1.20;;;25.20;81.70;;;;;;6157098;23;20407;-87
2023/09/21 05:21:05;;;;;;;1.10;0.90;;;25.20;81.40;;;;;;6156778;23;20457;-87
2023/09/21 05:23:36;;;;;;;1.20;1.07;;;25.20;81.40;;;;;;6156824;23;20810;-87
2023/09/21 05:26:03;;;;;;;1.20;0.90;;;25.20;81.40;;;;;;6157029;23;20763;-87
2023/09/21 05:28:30;;;;;;;1.40;1.30;;;25.20;81.50;;;;;;6156552;23;20828;-87
2023/09/21 05:30:56;;;;;;;1.70;1.27;;;25.20;81.40;;;;;;6156916;23;20490;-87
2023/09/21 05:33:23;;;;;;;1.30;1.10;;;25.20;81.50;;;;;;6156405;23;20519;-87
2023/09/21 05:35:55;;;;;;;1.10;0.97;;;25.20;81.70;;;;;;6156665;23;20934;-87
2023/09/21 05:38:22;;;;;;;1.77;1.00;;;25.20;81.60;;;;;;6157001;23;20399;-87
2023/09/21 05:40:50;;;;;;;1.60;1.20;;;25.20;81.70;;;;;;6156759;23;20538;-87
2023/09/21 05:43:17;;;;;;;1.50;1.40;;;25.20;81.60;;;;;;6156286;23;20404;-87
2023/09/21 05:45:44;;;;;;;1.20;1.00;;;25.20;81.60;;;;;;6156714;23;20404;-88
2023/09/21 05:48:15;;;;;;;1.20;1.10;;;25.20;81.60;;;;;;6156706;23;20404;-87
2023/09/21 05:50:44;;;;;;;1.50;1.30;;;25.20;81.60;;;;;;6156638;23;20392;-87
2023/09/21 05:53:11;;;;;;;1.20;1.10;;;25.20;81.50;;;;;;6156094;23;20406;-87
2023/09/21 05:55:38;;;;;;;1.40;1.20;;;25.20;81.30;;;;;;6156662;23;20825;-88
2023/09/21 05:58:07;;;;;;;1.30;1.20;;;25.20;81.60;;;;;;6156495;23;20396;-88
2023/09/21 06:00:34;;;;;;;1.20;1.00;;;25.20;81.40;;;;;;6156269;23;20534;-88
2023/09/21 06:03:01;;;;;;;1.20;1.10;;;25.20;81.50;;;;;;6156473;23;20502;-88
2023/09/21 06:05:29;;;;;;;1.20;0.90;;;25.20;81.50;;;;;;6156101;23;20407;-88
2023/09/21 06:07:56;;;;;;;1.40;1.30;;;25.20;81.50;;;;;;6156479;23;20779;-88
2023/09/21 06:10:23;;;;;;;1.40;1.10;;;25.20;81.60;;;;;;6156157;23;20907;-88
2023/09/21 06:12:50;;;;;;;1.20;0.83;;;25.20;81.60;;;;;;6156590;23;20734;-87
2023/09/21 06:15:18;;;;;;;1.80;1.70;;;25.20;81.50;;;;;;6156454;23;20410;-88
2023/09/21 06:17:46;;;;;;;1.40;1.13;;;25.20;81.60;;;;;;6156552;23;20895;-87
2023/09/21 06:20:14;;;;;;;1.20;1.10;;;25.20;81.80;;;;;;6156322;23;20540;-88
2023/09/21 06:22:41;;;;;;;1.30;1.20;;;25.20;81.50;;;;;;6156043;23;20915;-88
2023/09/21 06:25:10;;;;;;;1.40;1.13;;;25.20;81.70;;;;;;6156477;23;20410;-88
2023/09/21 06:27:38;;;;;;;1.73;1.27;;;25.20;82.00;;;;;;6156097;23;20522;-88
2023/09/21 06:30:07;;;;;;;1.10;1.00;;;25.20;81.90;;;;;;6156270;23;20442;-88
2023/09/21 06:32:35;;;;;;;1.30;1.20;;;25.20;82.00;;;;;;6155678;23;20423;-87
2023/09/21 06:35:03;;;;;;;1.17;1.00;;;25.20;82.00;;;;;;6156097;23;20407;-88
2023/09/21 06:37:30;;;;;;;1.27;1.17;;;25.20;82.00;;;;;;6156309;23;20404;-88
2023/09/21 06:39:59;;;;;;;1.20;1.00;;;25.20;82.10;;;;;;6156084;23;20454;-88
2023/09/21 06:42:25;;;;;;;1.10;0.90;;;25.20;82.20;;;;;;6155976;23;20990;-87
2023/09/21 06:44:54;;;;;;;1.20;1.00;;;25.20;82.30;;;;;;6155908;23;20402;-87
2023/09/21 06:47:22;;;;;;;1.50;1.20;;;25.20;82.30;;;;;;6156344;23;20599;-88
2023/09/21 06:49:53;;;;;;;1.30;0.90;;;25.20;82.40;;;;;;6156180;23;20451;-87
2023/09/21 06:52:21;;;;;;;1.10;0.97;;;25.20;82.30;;;;;;6156185;23;20787;-87
2023/09/21 06:54:48;;;;;;;1.57;1.20;;;25.20;82.30;;;;;;6156121;23;20408;-87
2023/09/21 06:57:17;;;;;;;1.77;1.37;;;25.20;82.30;;;;;;6156083;23;20475;-88
2023/09/21 06:59:44;;;;;;;1.20;1.10;;;25.20;82.40;;;;;;6155915;23;20450;-88
2023/09/21 07:02:11;;;;;;;1.60;1.20;;;25.20;82.40;;;;;;6155546;23;20518;-88
2023/09/21 07:04:37;;;;;;;1.30;1.20;;;25.20;82.30;;;;;;6155809;23;20431;-88
2023/09/21 07:07:07;;;;;;;1.30;1.10;;;25.30;82.40;;;;;;6156176;23;20480;-88
2023/09/21 07:09:35;;;;;;;1.30;1.10;;;25.30;82.40;;;;;;6156404;23;20478;-88
2023/09/21 07:12:03;;;;;;;1.17;1.07;;;25.30;82.50;;;;;;6156155;23;20784;-88
2023/09/21 07:14:32;;;;;;;1.30;1.20;;;25.30;82.40;;;;;;6155757;23;20488;-87
2023/09/21 07:16:59;;;;;;;1.17;1.07;;;25.30;82.40;;;;;;6156145;23;20404;-87
2023/09/21 07:19:26;;;;;;;1.20;1.00;;;25.30;83.30;;;;;;6156036;23;20454;-88
2023/09/21 07:21:53;;;;;;;1.30;1.17;;;25.30;82.40;;;;;;6155883;23;20534;-88
2023/09/21 07:24:21;;;;;;;1.20;1.10;;;25.30;82.40;;;;;;6156109;23;20462;-88
2023/09/21 07:26:49;;;;;;;1.20;1.00;;;25.30;82.50;;;;;;6155661;23;20966;-87
2023/09/21 07:29:17;;;;;;;1.50;1.40;;;25.40;82.60;;;;;;6155533;23;20454;-88
2023/09/21 07:31:44;;;;;;;1.23;1.03;;;25.40;82.60;;;;;;6155899;23;20483;-88
2023/09/21 07:34:10;;;;;;;1.10;1.00;;;25.40;82.60;;;;;;6155895;23;20507;-87
2023/09/21 07:36:38;;;;;;;1.20;1.10;;;25.40;82.60;;;;;;6155558;23;20954;-87
2023/09/21 07:39:09;;;;;;;1.10;0.90;;;25.40;82.60;;;;;;6156055;23;20427;-88
2023/09/21 07:41:38;;;;;;;1.20;1.00;;;25.40;82.60;;;;;;6155683;23;20468;-88
2023/09/21 07:44:08;;;;;;;1.30;1.07;;;25.40;82.60;;;;;;6156157;23;20764;-88
2023/09/21 07:46:35;;;;;;;1.40;1.20;;;25.40;82.60;;;;;;6155509;23;20400;-87
2023/09/21 07:49:04;;;;;;;1.10;0.87;;;25.40;82.60;;;;;;6156022;23;20506;-88
2023/09/21 07:51:31;;;;;;;1.30;1.10;;;25.40;82.60;;;;;;6155996;23;20414;-88
2023/09/21 07:53:59;;;;;;;1.40;1.30;;;25.40;82.60;;;;;;6155721;23;20431;-87
2023/09/21 07:56:26;;;;;;;1.60;1.07;;;25.50;82.70;;;;;;6155675;23;20400;-87
2023/09/21 07:58:55;;;;;;;1.03;0.90;;;25.50;82.70;;;;;;6156133;23;20486;-88
2023/09/21 08:01:23;;;;;;;1.10;1.00;;;25.50;82.70;;;;;;6157294;23;20459;-88
2023/09/21 08:03:50;;;;;;;1.40;1.23;;;25.50;82.70;;;;;;6157861;23;20474;-88
2023/09/21 08:06:19;;;;;;;1.20;1.00;;;25.50;82.70;;;;;;6157260;23;20395;-87
2023/09/21 08:08:47;;;;;;;1.13;1.00;;;25.50;82.70;;;;;;6157420;23;20400;-88
2023/09/21 08:11:15;;;;;;;1.40;1.20;;;25.60;82.70;;;;;;6157446;23;20408;-88
2023/09/21 08:13:41;;;;;;;1.20;1.10;;;25.60;82.70;;;;;;6157497;23;20414;-87
2023/09/21 08:16:10;;;;;;;1.10;1.00;;;25.60;82.80;;;;;;6157532;23;20446;-88
2023/09/21 08:18:37;;;;;;;1.30;1.10;;;25.60;82.70;;;;;;6157582;23;20483;-88
2023/09/21 08:21:04;;;;;;;1.17;1.07;;;25.60;82.80;;;;;;6157369;23;20443;-88
2023/09/21 08:23:32;;;;;;;1.40;1.20;;;25.60;82.80;;;;;;6157229;23;20399;-88
2023/09/21 08:25:59;;;;;;;1.60;1.30;;;25.70;82.80;;;;;;6157666;23;20411;-88
2023/09/21 08:28:26;;;;;;;1.80;0.90;;;25.70;82.80;;;;;;6156812;23;20519;-88
2023/09/21 08:30:54;;;;;;;1.30;1.20;;;25.70;82.80;;;;;;6157595;23;20450;-88
2023/09/21 08:33:23;;;;;;;2.53;1.20;;;25.70;83.70;;;;;;6157572;23;20648;-88
2023/09/21 08:35:50;;;;;;;1.50;1.13;;;25.70;82.80;;;;;;6156964;23;20884;-87
2023/09/21 08:38:17;;;;;;;1.27;1.03;;;25.80;82.80;;;;;;6157298;23;20435;-88
2023/09/21 08:40:46;;;;;;;1.23;0.97;;;25.80;82.80;;;;;;6157152;23;20462;-88
2023/09/21 08:43:19;;;;;;;1.40;1.30;;;25.80;82.90;;;;;;6157308;23;20408;-88
2023/09/21 08:45:47;;;;;;;1.30;1.00;;;25.80;82.90;;;;;;6157345;23;20479;-89
2023/09/21 08:48:17;;;;;;;1.13;1.03;;;25.80;82.80;;;;;;6156836;23;20408;-88
2023/09/21 08:50:45;;;;;;;1.30;1.10;;;25.80;82.90;;;;;;6157148;23;20407;-88
2023/09/21 08:53:15;;;;;;;1.20;1.10;;;25.80;82.90;;;;;;6157272;23;20780;-88
2023/09/21 08:55:43;;;;;;;1.50;1.30;;;25.80;82.90;;;;;;6157240;23;20400;-88
2023/09/21 08:58:13;;;;;;;1.20;1.07;;;25.90;83.00;;;;;;6156999;23;20438;-88
2023/09/21 09:00:42;;;;;;;1.37;1.27;;;25.90;83.00;;;;;;6156912;23;20816;-88
2023/09/21 09:03:09;;;;;;;1.20;1.00;;;25.90;82.90;;;;;;6157054;23;20451;-88
2023/09/21 09:05:36;;;;;;;1.20;1.10;;;25.90;82.80;;;;;;6157400;23;20432;-88
2023/09/21 09:08:05;;;;;;;1.33;1.23;;;26.00;82.80;;;;;;6156614;23;20491;-88
2023/09/21 09:10:40;;;;;;;1.40;1.27;;;26.00;82.90;;;;;;6156475;23;20414;-88
2023/09/21 09:13:07;;;;;;;1.27;1.13;;;26.00;82.90;;;;;;6156703;23;20764;-88
2023/09/21 09:15:37;;;;;;;1.23;1.00;;;26.00;82.90;;;;;;6157198;23;20475;-87
2023/09/21 09:18:04;;;;;;;1.20;1.10;;;26.10;82.90;;;;;;6156929;23;20522;-88
2023/09/21 09:20:32;;;;;;;1.10;0.90;;;26.10;82.90;;;;;;6156784;23;21006;-88
2023/09/21 09:23:01;;;;;;;1.40;1.20;;;26.10;82.80;;;;;;6156983;23;20439;-88
2023/09/21 09:25:29;;;;;;;1.30;1.00;;;26.20;82.80;;;;;;6156582;23;20486;-87
2023/09/21 09:27:56;;;;;;;1.10;0.90;;;26.20;82.80;;;;;;6156541;23;20432;-88
2023/09/21 09:30:25;;;;;;;1.83;1.33;;;26.20;82.80;;;;;;6156486;23;20486;-88
2023/09/21 09:32:55;;;;;;;1.27;1.07;;;26.20;82.80;;;;;;6156626;23;20432;-88
2023/09/21 09:35:21;;;;;;;1.40;1.30;;;26.30;82.80;;;;;;6156871;23;20487;-88
2023/09/21 09:37:48;;;;;;;1.23;1.13;;;26.30;82.80;;;;;;6156716;23;20442;-88
2023/09/21 09:40:18;;;;;;;1.37;1.27;;;26.30;82.70;;;;;;6156675;23;20479;-88
2023/09/21 09:42:48;;;;;;;1.20;1.00;;;26.30;82.80;;;;;;6156562;23;20439;-88
2023/09/21 09:45:18;;;;;;;1.10;0.97;;;26.30;82.80;;;;;;6156453;23;20462;-89
2023/09/21 09:47:51;;;;;;;1.40;1.30;;;26.30;82.80;;;;;;6156600;23;20427;-88
2023/09/21 09:50:23;;;;;;;1.77;1.30;;;26.30;82.80;;;;;;6156245;23;20420;-89
2023/09/21 09:52:55;;;;;;;1.23;1.10;;;26.30;82.80;;;;;;6156641;23;20396;-88
2023/09/21 09:55:25;;;;;;;1.27;1.07;;;26.30;82.80;;;;;;6156726;23;20412;-88
2023/09/21 09:57:55;;;;;;;1.20;1.07;;;26.30;82.90;;;;;;6156523;23;20459;-88
2023/09/21 10:00:22;;;;;;;1.20;1.10;;;26.30;82.90;;;;;;6156446;23;20487;-88
2023/09/21 10:02:50;;;;;;;1.10;1.00;;;26.30;82.80;;;;;;6156402;23;20525;-88
2023/09/21 10:05:20;;;;;;;1.30;0.90;;;26.30;82.90;;;;;;6156597;23;20483;-88
2023/09/21 10:07:51;;;;;;;1.23;1.13;;;26.30;83.00;;;;;;6156810;23;20396;-88
2023/09/21 10:10:20;;;;;;;1.30;1.10;;;26.30;83.10;;;;;;6156152;23;20392;-88
2023/09/21 10:12:50;;;;;;;1.40;1.10;;;26.30;83.10;;;;;;6156410;23;20411;-88
2023/09/21 10:15:22;;;;;;;1.13;0.97;;;26.30;83.10;;;;;;6156422;23;20748;-88
2023/09/21 10:17:50;;;;;;;1.30;1.00;;;26.30;83.20;;;;;;6156044;23;20766;-88
2023/09/21 10:20:24;;;;;;;1.30;1.20;;;26.30;83.20;;;;;;6156245;23;20396;-88
2023/09/21 10:22:53;;;;;;;1.10;0.97;;;26.30;83.10;;;;;;6156230;23;20477;-88
2023/09/21 10:25:39;;;;;;;1.23;1.07;;;26.30;83.20;;;;;;6156231;23;20403;-88
2023/09/21 10:28:27;;;;;;;1.13;0.93;;;26.30;83.30;;;;;;6156066;23;20522;-88
2023/09/21 10:30:55;;;;;;;1.30;1.20;;;26.30;83.30;;;;;;6155996;23;20388;-88
2023/09/21 10:33:25;;;;;;;1.50;1.40;;;26.20;83.30;;;;;;6156186;23;20507;-88
2023/09/21 10:35:53;;;;;;;1.17;1.07;;;26.20;83.30;;;;;;6155932;23;20404;-88
2023/09/21 10:38:20;;;;;;;1.40;1.30;;;26.20;83.30;;;;;;6156230;23;20418;-88
2023/09/21 10:40:47;;;;;;;1.33;1.13;;;26.20;83.40;;;;;;6156095;23;20434;-88
2023/09/21 10:43:43;;;;;;;1.10;0.90;;;26.20;83.40;;;;;;6155734;23;20475;-88
2023/09/21 10:46:20;;;;;;;1.40;1.10;;;26.20;83.40;;;;;;6156413;23;20388;-88
2023/09/21 10:48:48;;;;;;;1.20;1.10;;;26.20;83.50;;;;;;6156057;23;20411;-88
2023/09/21 10:51:15;;;;;;;1.10;0.90;;;26.20;84.40;;;;;;6155749;23;20412;-89
2023/09/21 10:53:43;;;;;;;1.27;1.10;;;26.20;83.60;;;;;;6156128;23;20406;-88
2023/09/21 10:56:10;;;;;;;1.37;1.00;;;26.20;83.50;;;;;;6156167;23;20470;-88
2023/09/21 10:58:37;;;;;;;1.20;1.00;;;26.30;83.50;;;;;;6156217;23;20419;-88
2023/09/21 11:01:06;;;;;;;1.27;1.10;;;26.30;83.50;;;;;;6155908;23;20400;-88
2023/09/21 11:03:35;;;;;;;1.33;1.20;;;26.30;83.50;;;;;;6156030;23;20435;-88
2023/09/21 11:06:02;;;;;;;1.20;1.10;;;26.30;83.40;;;;;;6156049;23;20404;-88
2023/09/21 11:08:30;;;;;;;1.50;1.20;;;26.30;83.30;;;;;;6156173;23;20755;-88
2023/09/21 11:10:57;;;;;;;1.20;1.00;;;26.30;83.30;;;;;;6156153;23;20491;-89
2023/09/21 11:13:25;;;;;;;2.53;1.40;;;26.30;83.40;;;;;;6156063;23;20400;-88
2023/09/21 11:15:54;;;;;;;1.20;1.10;;;26.30;83.50;;;;;;6155608;23;20416;-88
2023/09/21 11:18:21;;;;;;;1.57;1.17;;;26.40;83.60;;;;;;6156057;23;20406;-88
2023/09/21 11:20:50;;;;;;;1.23;1.10;;;26.40;83.60;;;;;;6155947;23;20499;-88
2023/09/21 11:23:20;;;;;;;1.77;1.33;;;26.40;83.60;;;;;;6155801;23;20447;-88
2023/09/21 11:25:49;;;;;;;1.20;1.07;;;26.40;83.60;;;;;;6156028;23;20400;-89
2023/09/21 11:28:16;;;;;;;1.20;1.10;;;26.40;83.60;;;;;;6155601;23;20428;-88
2023/09/21 11:30:43;;;;;;;1.20;1.10;;;26.40;83.50;;;;;;6155578;23;20486;-89
2023/09/21 11:33:10;;;;;;;1.20;1.00;;;26.40;84.30;;;;;;6155904;23;20454;-88
2023/09/21 11:35:37;;;;;;;1.30;1.00;;;26.40;83.60;;;;;;6156918;23;20826;-89
2023/09/21 11:38:06;;;;;;;1.20;1.00;;;26.40;83.70;;;;;;6157571;23;20410;-89
2023/09/21 11:40:33;;;;;;;1.13;1.03;;;26.40;83.60;;;;;;6157333;23;20439;-88
2023/09/21 11:43:01;;;;;;;1.20;1.00;;;26.40;83.60;;;;;;6157927;23;20522;-89
2023/09/21 11:45:28;;;;;;;1.20;1.07;;;26.40;83.70;;;;;;6157487;23;20491;-88
2023/09/21 11:47:57;;;;;;;1.00;0.90;;;26.40;83.80;;;;;;6157743;23;20427;-88
2023/09/21 11:50:26;;;;;;;1.30;1.20;;;26.40;83.70;;;;;;6157458;23;20399;-88
2023/09/21 11:52:55;;;;;;;1.20;1.00;;;26.40;83.70;;;;;;6157704;23;20403;-88
2023/09/21 11:55:24;;;;;;;1.20;1.00;;;26.40;83.70;;;;;;6157747;23;20802;-88
2023/09/21 11:57:52;;;;;;;1.13;1.00;;;26.40;83.70;;;;;;6157320;23;20487;-88
2023/09/21 12:00:27;;;;;;;1.10;0.80;;;26.40;83.80;;;;;;6157174;23;20911;-88
2023/09/21 12:02:56;;;;;;;1.50;1.17;;;26.40;83.70;;;;;;6157603;23;20451;-88
2023/09/21 12:05:23;;;;;;;1.10;0.90;;;26.40;83.80;;;;;;6157302;23;20399;-88
2023/09/21 12:07:49;;;;;;;1.10;1.00;;;26.40;83.80;;;;;;6157666;23;20427;-88
2023/09/21 12:10:17;;;;;;;1.30;1.20;;;26.40;83.80;;;;;;6157854;23;20398;-88
2023/09/21 12:12:46;;;;;;;1.30;1.20;;;26.40;83.80;;;;;;6157551;23;20407;-88
2023/09/21 12:15:14;;;;;;;1.27;1.10;;;26.40;83.80;;;;;;6157333;23;20400;-88
2023/09/21 12:17:41;;;;;;;1.30;1.20;;;26.40;83.80;;;;;;6157355;23;20403;-88
2023/09/21 12:20:17;;;;;;;1.30;1.00;;;26.40;83.80;;;;;;6157579;23;20482;-88
2023/09/21 12:22:44;;;;;;;1.10;1.00;;;26.40;83.80;;;;;;6157112;23;20436;-88
2023/09/21 12:25:11;;;;;;;1.47;1.37;;;26.40;83.80;;;;;;6157183;23;20963;-88
2023/09/21 12:27:38;;;;;;;1.43;1.20;;;26.40;83.80;;;;;;6156982;23;20420;-89
2023/09/21 12:30:12;;;;;;;1.33;1.10;;;26.40;83.90;;;;;;6157564;23;20400;-88
2023/09/21 12:32:39;;;;;;;1.20;1.00;;;26.40;83.90;;;;;;6157178;23;20412;-88
2023/09/21 12:35:08;;;;;;;1.10;0.90;;;26.40;83.90;;;;;;6157397;23;20454;-88
2023/09/21 12:37:35;;;;;;;1.53;1.13;;;26.40;84.00;;;;;;6156932;23;20400;-88
2023/09/21 12:40:04;;;;;;;1.30;1.10;;;26.30;83.80;;;;;;6156866;23;20450;-88
2023/09/21 12:42:31;;;;;;;1.13;0.93;;;26.30;83.80;;;;;;6157158;23;20479;-88
2023/09/21 12:44:57;;;;;;;1.43;1.33;;;26.30;83.90;;;;;;6156963;23;20491;-88
2023/09/21 12:47:26;;;;;;;1.40;1.20;;;26.30;83.90;;;;;;6157174;23;20487;-88
2023/09/21 12:49:52;;;;;;;1.20;1.00;;;26.30;84.00;;;;;;6156826;23;20439;-88
2023/09/21 12:52:19;;;;;;;1.30;1.20;;;26.40;84.10;;;;;;6157218;23;20432;-88
2023/09/21 12:54:46;;;;;;;1.43;1.10;;;26.30;83.90;;;;;;6157221;23;20565;-88